createdAt,value
2017-07-10T00:00:07.054Z,30.8
2017-07-10T00:01:11.895Z,30.8
2017-07-10T00:02:06.806Z,30.8
2017-07-10T00:03:11.968Z,30.8
2017-07-10T00:04:11.929Z,30.8
2017-07-10T00:05:06.956Z,30.7
2017-07-10T00:06:12.395Z,30.6
2017-07-10T00:07:07.259Z,30.7
2017-07-10T00:08:07.271Z,30.7
2017-07-10T00:09:07.277Z,30.6
2017-07-10T00:10:10.083Z,30.6
2017-07-10T00:11:07.282Z,30.5
2017-07-10T00:12:10.656Z,30.6
2017-07-10T00:13:07.520Z,30.6
2017-07-10T00:14:07.362Z,30.5
2017-07-10T00:15:12.633Z,30.5
2017-07-10T00:16:12.562Z,30.5
2017-07-10T00:17:10.666Z,30.5
2017-07-10T00:18:08.029Z,30.5
2017-07-10T00:19:12.727Z,30.5
2017-07-10T00:20:12.914Z,30.5
2017-07-10T00:21:07.927Z,30.5
2017-07-10T00:22:07.964Z,30.5
2017-07-10T00:23:07.920Z,30.5
2017-07-10T00:24:13.349Z,30.5
2017-07-10T00:25:13.052Z,30.5
2017-07-10T00:26:08.225Z,30.5
2017-07-10T00:27:08.298Z,30.4
2017-07-10T00:28:08.189Z,30.4
2017-07-10T00:29:08.214Z,30.4
2017-07-10T00:30:08.706Z,30.4
2017-07-10T00:31:08.359Z,30.4
2017-07-10T00:32:08.405Z,30.4
2017-07-10T00:33:11.414Z,30.4
2017-07-10T00:34:11.323Z,30.4
2017-07-10T00:35:11.518Z,30.4
2017-07-10T00:36:13.799Z,30.5
2017-07-10T00:37:13.622Z,30.5
2017-07-10T00:38:13.698Z,30.5
2017-07-10T00:39:11.631Z,30.5
2017-07-10T00:40:11.825Z,30.4
2017-07-10T00:41:11.877Z,30.4
2017-07-10T00:42:09.365Z,30.4
2017-07-10T00:43:13.965Z,30.4
2017-07-10T00:44:09.014Z,30.4
2017-07-10T00:45:09.253Z,30.4
2017-07-10T00:46:14.257Z,30.4
2017-07-10T00:47:14.288Z,30.4
2017-07-10T00:48:14.584Z,30.4
2017-07-10T00:49:12.188Z,30.4
2017-07-10T00:50:12.224Z,30.4
2017-07-10T00:51:09.298Z,30.5
2017-07-10T00:52:10.094Z,30.5
2017-07-10T00:53:14.401Z,30.5
2017-07-10T00:54:09.869Z,30.4
2017-07-10T00:55:14.493Z,30.4
2017-07-10T00:56:09.576Z,30.4
2017-07-10T00:57:09.533Z,30.4
2017-07-10T00:58:09.711Z,30.4
2017-07-10T00:59:09.747Z,30.5
2017-07-10T01:00:09.885Z,30.5
2017-07-10T01:01:12.690Z,30.5
2017-07-10T01:02:09.771Z,30.5
2017-07-10T01:03:14.824Z,30.5
2017-07-10T01:04:12.824Z,30.5
2017-07-10T01:05:10.311Z,30.6
2017-07-10T01:06:10.011Z,30.6
2017-07-10T01:07:10.279Z,30.5
2017-07-10T01:08:15.311Z,30.5
2017-07-10T01:09:15.208Z,30.4
2017-07-10T01:10:10.445Z,30.4
2017-07-10T01:11:10.850Z,30.4
2017-07-10T01:12:15.678Z,30.4
2017-07-10T01:13:10.646Z,30.4
2017-07-10T01:14:15.848Z,30.4
2017-07-10T01:15:13.562Z,30.4
2017-07-10T01:16:11.597Z,30.3
2017-07-10T01:17:13.880Z,30.4
2017-07-10T01:18:15.860Z,30.3
2017-07-10T01:19:13.822Z,30.3
2017-07-10T01:20:13.925Z,30.4
2017-07-10T01:21:16.144Z,30.4
2017-07-10T01:22:10.996Z,30.4
2017-07-10T01:23:11.334Z,30.4
2017-07-10T01:24:16.225Z,30.4
2017-07-10T01:25:16.241Z,30.4
2017-07-10T01:26:16.172Z,30.4
2017-07-10T01:27:16.174Z,30.4
2017-07-10T01:28:11.542Z,30.4
2017-07-10T01:29:11.928Z,30.4
2017-07-10T01:30:16.580Z,30.4
2017-07-10T01:31:14.479Z,30.4
2017-07-10T01:32:14.661Z,30.4
2017-07-10T01:33:11.761Z,30.4
2017-07-10T01:34:11.798Z,30.4
2017-07-10T01:35:14.966Z,30.4
2017-07-10T01:36:14.751Z,30.4
2017-07-10T01:37:11.924Z,30.3
2017-07-10T01:38:14.839Z,30.4
2017-07-10T01:39:14.857Z,30.3
2017-07-10T01:40:11.900Z,30.3
2017-07-10T01:41:17.440Z,30.3
2017-07-10T01:42:12.190Z,30.3
2017-07-10T01:43:15.079Z,30.3
2017-07-10T01:44:17.261Z,30.3
2017-07-10T01:45:15.092Z,30.3
2017-07-10T01:46:12.182Z,30.3
2017-07-10T01:47:15.489Z,30.3
2017-07-10T01:48:17.426Z,30.3
2017-07-10T01:49:12.423Z,30.3
2017-07-10T01:50:12.640Z,30.3
2017-07-10T01:51:12.539Z,30.3
2017-07-10T01:52:17.754Z,30.3
2017-07-10T01:53:18.124Z,30.3
2017-07-10T01:54:13.804Z,30.3
2017-07-10T01:55:14.301Z,30.3
2017-07-10T01:56:14.858Z,30.3
2017-07-10T01:57:14.621Z,30.3
2017-07-10T01:58:17.115Z,30.3
2017-07-10T01:59:19.181Z,30.2
2017-07-10T02:00:14.603Z,30.3
2017-07-10T02:01:14.353Z,30.3
2017-07-10T02:02:17.009Z,30.2
2017-07-10T02:03:13.482Z,30.2
2017-07-10T02:04:16.192Z,30.2
2017-07-10T02:05:13.602Z,30.1
2017-07-10T02:06:13.473Z,30.1
2017-07-10T02:07:13.528Z,30.1
2017-07-10T02:08:18.560Z,30.1
2017-07-10T02:09:18.498Z,30.1
2017-07-10T02:10:13.527Z,30
2017-07-10T02:11:14.061Z,30.1
2017-07-10T02:12:16.513Z,30.1
2017-07-10T02:13:18.838Z,30.1
2017-07-10T02:14:16.782Z,30.1
2017-07-10T02:15:18.929Z,30
2017-07-10T02:16:13.992Z,30.1
2017-07-10T02:17:19.202Z,30
2017-07-10T02:18:13.952Z,30
2017-07-10T02:19:19.053Z,30
2017-07-10T02:20:14.142Z,30
2017-07-10T02:21:19.277Z,30
2017-07-10T02:22:14.310Z,30
2017-07-10T02:23:17.569Z,30
2017-07-10T02:24:17.236Z,30
2017-07-10T02:25:17.231Z,30
2017-07-10T02:26:14.386Z,30
2017-07-10T02:27:19.612Z,30
2017-07-10T02:28:17.439Z,30
2017-07-10T02:29:15.015Z,30
2017-07-10T02:30:19.906Z,30
2017-07-10T02:31:14.887Z,30
2017-07-10T02:32:17.777Z,30
2017-07-10T02:33:17.912Z,29.9
2017-07-10T02:34:20.055Z,30
2017-07-10T02:35:15.312Z,30
2017-07-10T02:36:21.859Z,30
2017-07-10T02:37:15.307Z,30
2017-07-10T02:38:15.232Z,30
2017-07-10T02:39:15.371Z,30
2017-07-10T02:40:18.162Z,30
2017-07-10T02:41:18.517Z,30.1
2017-07-10T02:42:15.471Z,30
2017-07-10T02:43:15.715Z,30.1
2017-07-10T02:44:20.755Z,30.1
2017-07-10T02:45:20.719Z,30.1
2017-07-10T02:46:15.635Z,30.1
2017-07-10T02:47:18.869Z,30.1
2017-07-10T02:48:20.738Z,30.1
2017-07-10T02:49:20.780Z,30.1
2017-07-10T02:50:18.837Z,30.1
2017-07-10T02:51:16.010Z,30.1
2017-07-10T02:52:20.883Z,30.1
2017-07-10T02:53:19.192Z,30.2
2017-07-10T02:54:16.028Z,30.2
2017-07-10T02:55:19.017Z,30.1
2017-07-10T02:56:21.082Z,30.2
2017-07-10T02:57:16.141Z,30.2
2017-07-10T02:58:21.295Z,30.2
2017-07-10T02:59:16.637Z,30.2
2017-07-10T03:00:16.357Z,30.2
2017-07-10T03:01:16.594Z,30.2
2017-07-10T03:02:19.435Z,30.1
2017-07-10T03:03:21.597Z,30.1
2017-07-10T03:04:19.395Z,30.1
2017-07-10T03:05:16.784Z,30.1
2017-07-10T03:06:19.437Z,30.1
2017-07-10T03:07:16.788Z,30.1
2017-07-10T03:08:21.788Z,30.2
2017-07-10T03:09:21.842Z,30.1
2017-07-10T03:10:17.566Z,30.2
2017-07-10T03:11:22.127Z,30.2
2017-07-10T03:12:17.064Z,30.1
2017-07-10T03:13:16.963Z,30.2
2017-07-10T03:14:17.180Z,30.2
2017-07-10T03:15:20.029Z,30.2
2017-07-10T03:16:17.181Z,30.2
2017-07-10T03:17:22.549Z,30.2
2017-07-10T03:18:17.293Z,30.2
2017-07-10T03:19:17.189Z,30.2
2017-07-10T03:20:22.243Z,30.3
2017-07-10T03:21:22.321Z,30.3
2017-07-10T03:22:17.518Z,30.2
2017-07-10T03:23:20.660Z,30.3
2017-07-10T03:24:17.616Z,30.3
2017-07-10T03:25:17.521Z,30.3
2017-07-10T03:26:17.556Z,30.3
2017-07-10T03:27:22.686Z,30.3
2017-07-10T03:28:22.612Z,30.3
2017-07-10T03:29:22.991Z,30.2
2017-07-10T03:30:20.545Z,30.3
2017-07-10T03:31:17.720Z,30.3
2017-07-10T03:32:22.777Z,30.2
2017-07-10T03:33:20.838Z,30.2
2017-07-10T03:34:17.922Z,30.2
2017-07-10T03:35:18.447Z,30.2
2017-07-10T03:36:20.925Z,30.2
2017-07-10T03:37:18.195Z,30.1
2017-07-10T03:38:18.198Z,30.1
2017-07-10T03:39:21.255Z,30.1
2017-07-10T03:40:18.430Z,30.1
2017-07-10T03:41:18.578Z,30.1
2017-07-10T03:42:18.334Z,30.1
2017-07-10T03:43:21.306Z,30
2017-07-10T03:44:18.517Z,30
2017-07-10T03:45:18.734Z,30
2017-07-10T03:46:18.746Z,30
2017-07-10T03:47:18.963Z,30.1
2017-07-10T03:48:18.823Z,30.1
2017-07-10T03:49:21.754Z,30
2017-07-10T03:50:18.921Z,30.1
2017-07-10T03:51:23.848Z,30.1
2017-07-10T03:52:18.929Z,30.1
2017-07-10T03:53:24.383Z,30.1
2017-07-10T03:54:19.215Z,30.2
2017-07-10T03:55:19.092Z,30.2
2017-07-10T03:56:19.270Z,30.2
2017-07-10T03:57:24.381Z,30.2
2017-07-10T03:58:19.433Z,30.2
2017-07-10T03:59:19.722Z,30.2
2017-07-10T04:00:19.327Z,30.1
2017-07-10T04:01:22.397Z,30.1
2017-07-10T04:02:19.445Z,30.1
2017-07-10T04:03:19.517Z,30
2017-07-10T04:04:24.718Z,30.1
2017-07-10T04:05:24.961Z,30
2017-07-10T04:06:19.909Z,30
2017-07-10T04:07:22.695Z,30
2017-07-10T04:08:19.923Z,30
2017-07-10T04:09:19.950Z,30
2017-07-10T04:10:19.933Z,29.9
2017-07-10T04:11:20.461Z,30
2017-07-10T04:12:19.953Z,30
2017-07-10T04:13:20.119Z,30
2017-07-10T04:19:32.619Z,29.9
2017-07-10T04:20:34.611Z,29.9
2017-07-10T04:21:29.498Z,29.9
2017-07-10T04:22:29.670Z,29.9
2017-07-10T04:23:29.567Z,29.9
2017-07-10T04:24:29.704Z,29.9
2017-07-10T04:25:29.983Z,30
2017-07-10T04:26:29.733Z,30
2017-07-10T04:27:34.850Z,30
2017-07-10T04:28:29.909Z,30
2017-07-10T04:29:34.991Z,30
2017-07-10T04:30:32.958Z,30
2017-07-10T04:31:33.141Z,30
2017-07-10T04:32:35.007Z,30
2017-07-10T04:33:35.087Z,30.1
2017-07-10T04:34:35.227Z,30.1
2017-07-10T04:35:30.257Z,30.2
2017-07-10T04:36:30.455Z,30.2
2017-07-10T04:37:30.643Z,30.2
2017-07-10T04:38:35.417Z,30.3
2017-07-10T04:39:30.662Z,30.3
2017-07-10T04:40:30.589Z,30.3
2017-07-10T04:41:30.696Z,30.3
2017-07-10T04:42:35.890Z,30.2
2017-07-10T04:43:36.348Z,30.2
2017-07-10T04:44:30.875Z,30.3
2017-07-10T04:45:34.012Z,30.3
2017-07-10T04:46:34.689Z,30.3
2017-07-10T04:47:36.057Z,30.3
2017-07-10T04:48:35.973Z,30.3
2017-07-10T04:49:31.436Z,30.3
2017-07-10T04:50:36.078Z,30.3
2017-07-10T04:51:36.168Z,30.3
2017-07-10T04:52:31.416Z,30.2
2017-07-10T04:53:34.338Z,30.2
2017-07-10T04:54:31.555Z,30.2
2017-07-10T04:55:34.748Z,30.2
2017-07-10T04:56:34.482Z,30.2
2017-07-10T04:57:34.556Z,30.2
2017-07-10T04:58:34.617Z,30.2
2017-07-10T04:59:31.715Z,30.2
2017-07-10T05:00:31.701Z,30.3
2017-07-10T05:01:31.993Z,30.3
2017-07-10T05:02:36.725Z,30.3
2017-07-10T05:03:31.948Z,30.3
2017-07-10T05:04:31.852Z,30.2
2017-07-10T05:05:32.084Z,30.2
2017-07-10T05:06:34.853Z,30.1
2017-07-10T05:07:37.367Z,30
2017-07-10T05:08:37.257Z,30.1
2017-07-10T05:09:32.293Z,30
2017-07-10T05:10:32.390Z,30
2017-07-10T05:11:32.426Z,30
2017-07-10T05:12:37.488Z,30.1
2017-07-10T05:13:35.648Z,30.1
2017-07-10T05:14:35.285Z,30.2
2017-07-10T05:15:35.506Z,30.2
2017-07-10T05:16:32.772Z,30.2
2017-07-10T05:17:37.709Z,30.2
2017-07-10T05:18:36.304Z,30.2
2017-07-10T05:19:37.936Z,30.2
2017-07-10T05:20:35.648Z,30.1
2017-07-10T05:21:35.747Z,30.1
2017-07-10T05:22:32.938Z,30
2017-07-10T05:23:37.858Z,29.9
2017-07-10T05:24:37.928Z,29.9
2017-07-10T05:25:36.280Z,29.8
2017-07-10T05:26:35.977Z,29.8
2017-07-10T05:27:38.269Z,29.7
2017-07-10T05:28:33.269Z,29.6
2017-07-10T05:29:33.729Z,29.6
2017-07-10T05:30:35.179Z,29.5
2017-07-10T05:31:37.786Z,29.5
2017-07-10T05:32:40.259Z,29.5
2017-07-10T05:33:37.401Z,29.5
2017-07-10T05:34:36.899Z,29.6
2017-07-10T05:35:36.165Z,29.6
2017-07-10T05:36:33.578Z,29.6
2017-07-10T05:37:33.865Z,29.6
2017-07-10T05:38:33.642Z,29.6
2017-07-10T05:39:33.669Z,29.5
2017-07-10T05:40:36.972Z,29.5
2017-07-10T05:41:36.859Z,29.5
2017-07-10T05:42:33.948Z,29.5
2017-07-10T05:43:39.418Z,29.5
2017-07-10T05:44:34.267Z,29.4
2017-07-10T05:45:37.014Z,29.4
2017-07-10T05:46:34.100Z,29.5
2017-07-10T05:47:39.035Z,29.6
2017-07-10T05:48:35.180Z,29.7
2017-07-10T05:49:37.489Z,29.8
2017-07-10T05:50:42.199Z,29.8
2017-07-10T05:51:34.252Z,29.8
2017-07-10T05:52:34.293Z,29.8
2017-07-10T05:53:37.289Z,29.8
2017-07-10T05:54:34.390Z,29.9
2017-07-10T05:55:34.753Z,29.9
2017-07-10T05:56:39.570Z,29.9
2017-07-10T05:57:34.486Z,29.9
2017-07-10T05:58:41.030Z,29.8
2017-07-10T05:59:37.856Z,29.7
2017-07-10T06:00:35.650Z,29.6
2017-07-10T06:01:41.145Z,29.5
2017-07-10T06:02:39.780Z,29.5
2017-07-10T06:03:42.907Z,29.5
2017-07-10T06:04:37.798Z,29.5
2017-07-10T06:05:40.690Z,29.5
2017-07-10T06:06:35.573Z,29.6
2017-07-10T06:07:40.984Z,29.6
2017-07-10T06:08:41.586Z,29.8
2017-07-10T06:09:35.391Z,29.8
2017-07-10T06:10:36.694Z,29.8
2017-07-10T06:12:30.331Z,29.8
2017-07-10T06:12:50.562Z,29.6
2017-07-10T06:14:28.103Z,29.6
2017-07-10T06:15:13.177Z,29.2
2017-07-10T06:15:46.409Z,29.5
2017-07-10T06:16:49.501Z,29.5
2017-07-10T06:17:49.843Z,29.5
2017-07-10T06:18:50.757Z,29.5
2017-07-10T06:19:56.075Z,29.5
2017-07-10T06:20:55.106Z,29.5
2017-07-10T06:21:52.567Z,29.5
2017-07-10T06:22:51.693Z,29.4
2017-07-10T06:23:51.133Z,29.4
2017-07-10T06:24:52.014Z,29.4
2017-07-10T06:25:53.174Z,29.4
2017-07-10T06:26:55.647Z,29.4
2017-07-10T06:27:51.660Z,29.4
2017-07-10T06:28:47.355Z,29.4
2017-07-10T06:29:47.453Z,29.5
2017-07-10T06:30:58.398Z,29.5
2017-07-10T06:31:50.210Z,29.5
2017-07-10T06:32:53.034Z,29.5
2017-07-10T06:33:50.910Z,29.5
2017-07-10T06:34:55.044Z,29.5
2017-07-10T06:35:48.817Z,29.6
2017-07-10T06:36:51.216Z,29.6
2017-07-10T06:37:51.277Z,29.6
2017-07-10T06:38:53.510Z,29.6
2017-07-10T06:39:53.156Z,29.6
2017-07-10T06:40:53.559Z,29.6
2017-07-10T06:41:59.748Z,29.6
2017-07-10T06:42:55.018Z,29.5
2017-07-10T06:43:53.042Z,29.5
2017-07-10T06:44:51.633Z,29.5
2017-07-10T06:45:50.743Z,29.5
2017-07-10T06:46:48.833Z,29.5
2017-07-10T06:47:51.019Z,29.4
2017-07-10T06:48:55.880Z,29.5
2017-07-10T06:49:50.487Z,29.5
2017-07-10T06:50:51.185Z,29.6
2017-07-10T06:51:55.085Z,29.7
2017-07-10T06:52:49.649Z,29.8
2017-07-10T06:53:51.390Z,29.7
2017-07-10T06:54:54.759Z,29.7
2017-07-10T06:55:49.061Z,29.6
2017-07-10T06:56:54.744Z,29.6
2017-07-10T06:57:54.102Z,29.6
2017-07-10T06:58:53.471Z,29.6
2017-07-10T06:59:49.425Z,29.6
2017-07-10T07:00:52.957Z,29.7
2017-07-10T07:01:50.054Z,29.6
2017-07-10T07:02:50.389Z,29.6
2017-07-10T07:03:56.476Z,29.7
2017-07-10T07:04:50.540Z,29.6
2017-07-10T07:05:56.828Z,29.7
2017-07-10T07:06:50.261Z,29.7
2017-07-10T07:07:49.571Z,29.7
2017-07-10T07:08:53.148Z,29.8
2017-07-10T07:09:50.885Z,29.8
2017-07-10T07:10:51.198Z,29.8
2017-07-10T07:11:54.278Z,29.8
2017-07-10T07:12:51.277Z,29.9
2017-07-10T07:13:56.112Z,29.9
2017-07-10T07:14:55.274Z,29.9
2017-07-10T07:15:50.059Z,29.9
2017-07-10T07:16:50.012Z,29.9
2017-07-10T07:17:50.699Z,29.9
2017-07-10T07:19:00.326Z,29.9
2017-07-10T07:19:53.593Z,29.9
2017-07-10T07:20:53.664Z,29.9
2017-07-10T07:21:52.709Z,30
2017-07-10T07:22:50.867Z,30
2017-07-10T07:23:54.643Z,30
2017-07-10T07:24:50.558Z,30.1
2017-07-10T07:25:53.331Z,30.1
2017-07-10T07:26:53.450Z,30.1
2017-07-10T07:27:54.911Z,30.1
2017-07-10T07:28:56.260Z,30.1
2017-07-10T07:29:54.091Z,30.2
2017-07-10T07:30:55.829Z,30.2
2017-07-10T07:31:51.356Z,30.3
2017-07-10T07:32:54.360Z,30.4
2017-07-10T07:33:56.004Z,30.5
2017-07-10T07:34:51.051Z,30.5
2017-07-10T07:35:56.026Z,30.6
2017-07-10T07:36:57.207Z,30.6
2017-07-10T07:37:51.750Z,30.6
2017-07-10T07:38:57.081Z,30.7
2017-07-10T07:39:54.719Z,30.7
2017-07-10T07:40:53.542Z,30.8
2017-07-10T07:41:53.467Z,30.8
2017-07-10T07:42:53.449Z,30.8
2017-07-10T07:43:59.959Z,30.8
2017-07-10T07:44:57.965Z,30.8
2017-07-10T07:45:54.974Z,30.8
2017-07-10T07:46:57.171Z,30.7
2017-07-10T07:47:54.601Z,30.7
2017-07-10T07:48:55.135Z,30.6
2017-07-10T07:49:51.710Z,30.6
2017-07-10T07:50:54.728Z,30.7
2017-07-10T07:51:52.635Z,30.7
2017-07-10T07:52:55.000Z,30.7
2017-07-10T07:53:57.084Z,30.7
2017-07-10T07:54:53.313Z,30.7
2017-07-10T07:55:53.191Z,30.7
2017-07-10T07:56:52.052Z,30.7
2017-07-10T07:57:52.093Z,30.6
2017-07-10T07:58:55.453Z,30.6
2017-07-10T07:59:55.479Z,30.6
2017-07-10T08:00:55.523Z,30.6
2017-07-10T08:01:57.178Z,30.7
2017-07-10T08:02:55.938Z,30.7
2017-07-10T08:03:55.221Z,30.7
2017-07-10T08:04:52.457Z,30.6
2017-07-10T08:05:52.972Z,30.7
2017-07-10T08:06:53.723Z,30.6
2017-07-10T08:07:56.115Z,30.7
2017-07-10T08:08:53.992Z,30.7
2017-07-10T08:09:53.458Z,30.7
2017-07-10T08:10:57.522Z,30.6
2017-07-10T08:11:53.538Z,30.6
2017-07-10T08:13:00.335Z,30.6
2017-07-10T08:13:53.761Z,30.6
2017-07-10T08:14:59.511Z,30.6
2017-07-10T08:15:59.955Z,30.7
2017-07-10T08:16:54.908Z,30.7
2017-07-10T08:17:59.889Z,30.7
2017-07-10T08:18:57.435Z,30.8
2017-07-10T08:19:56.713Z,30.8
2017-07-10T08:20:55.294Z,30.9
2017-07-10T08:21:53.211Z,30.9
2017-07-10T08:22:54.399Z,30.9
2017-07-10T08:23:53.569Z,30.9
2017-07-10T08:24:53.432Z,30.9
2017-07-10T08:25:55.550Z,30.8
2017-07-10T08:26:54.885Z,30.9
2017-07-10T08:27:56.577Z,30.8
2017-07-10T08:28:59.329Z,30.8
2017-07-10T08:29:53.668Z,30.7
2017-07-10T08:30:55.846Z,30.7
2017-07-10T08:31:56.381Z,30.7
2017-07-10T08:32:56.733Z,30.6
2017-07-10T08:33:54.780Z,30.6
2017-07-10T08:34:56.705Z,30.6
2017-07-10T08:35:57.475Z,30.6
2017-07-10T08:36:57.018Z,30.6
2017-07-10T08:38:01.585Z,30.6
2017-07-10T08:38:55.462Z,30.7
2017-07-10T08:39:55.213Z,30.7
2017-07-10T08:40:58.626Z,30.7
2017-07-10T08:41:58.493Z,30.8
2017-07-10T08:42:58.783Z,30.8
2017-07-10T08:44:01.535Z,30.8
2017-07-10T08:44:56.069Z,30.8
2017-07-10T08:45:54.692Z,30.8
2017-07-10T08:46:54.600Z,30.8
2017-07-10T08:47:55.365Z,30.9
2017-07-10T08:48:55.466Z,30.9
2017-07-10T08:49:55.444Z,31
2017-07-10T08:50:57.534Z,31
2017-07-10T08:51:58.918Z,31
2017-07-10T08:52:59.134Z,30.9
2017-07-10T08:53:59.540Z,30.9
2017-07-10T08:54:55.290Z,30.9
2017-07-10T08:56:02.458Z,30.9
2017-07-10T08:56:56.796Z,30.9
2017-07-10T08:57:55.445Z,30.9
2017-07-10T08:58:57.343Z,31
2017-07-10T08:59:58.443Z,31
2017-07-10T09:01:01.823Z,31.1
2017-07-10T09:02:00.727Z,31.1
2017-07-10T09:02:55.764Z,31.2
2017-07-10T09:03:56.821Z,31.3
2017-07-10T09:05:04.205Z,31.3
2017-07-10T09:05:57.689Z,31.4
2017-07-10T09:07:04.586Z,31.3
2017-07-10T09:07:58.749Z,31.4
2017-07-10T09:08:57.473Z,31.5
2017-07-10T09:09:59.966Z,31.5
2017-07-10T09:11:01.954Z,31.5
2017-07-10T09:12:03.219Z,31.5
2017-07-10T09:12:56.377Z,31.5
2017-07-10T09:13:59.884Z,31.5
2017-07-10T09:15:01.231Z,31.5
2017-07-10T09:15:57.288Z,31.5
2017-07-10T09:16:56.325Z,31.5
2017-07-10T09:17:56.955Z,31.4
2017-07-10T09:18:57.300Z,31.4
2017-07-10T09:20:09.981Z,31.5
2017-07-10T09:21:03.078Z,31.5
2017-07-10T09:21:57.449Z,31.6
2017-07-10T09:22:59.648Z,31.6
2017-07-10T09:23:58.612Z,31.6
2017-07-10T09:24:57.982Z,31.7
2017-07-10T09:25:59.493Z,31.7
2017-07-10T09:26:57.364Z,31.8
2017-07-10T09:27:59.682Z,31.8
2017-07-10T09:28:58.941Z,31.8
2017-07-10T09:30:03.257Z,31.9
2017-07-10T09:30:57.712Z,31.9
2017-07-10T09:32:00.673Z,31.9
2017-07-10T09:33:02.063Z,31.9
2017-07-10T09:34:02.015Z,32
2017-07-10T09:35:02.142Z,32.1
2017-07-10T09:36:02.243Z,32.2
2017-07-10T09:36:57.213Z,32.2
2017-07-10T09:37:57.292Z,32.2
2017-07-10T09:39:02.946Z,32.2
2017-07-10T09:40:01.637Z,32.3
2017-07-10T09:41:02.452Z,32.4
2017-07-10T09:42:01.727Z,32.4
2017-07-10T09:42:58.993Z,32.4
2017-07-10T09:44:00.777Z,32.4
2017-07-10T09:45:05.138Z,32.5
2017-07-10T09:46:01.174Z,32.5
2017-07-10T09:46:58.287Z,32.6
2017-07-10T09:48:02.882Z,32.7
2017-07-10T09:49:05.236Z,32.8
2017-07-10T09:49:57.894Z,32.9
2017-07-10T09:50:58.012Z,33
2017-07-10T09:52:03.804Z,33
2017-07-10T09:53:02.901Z,33.1
2017-07-10T09:53:58.247Z,33.2
2017-07-10T09:55:02.361Z,33.3
2017-07-10T09:56:02.378Z,33.3
2017-07-10T09:57:01.887Z,33.4
2017-07-10T09:57:58.346Z,33.4
2017-07-10T09:58:59.572Z,33.3
2017-07-10T10:00:04.313Z,33.4
2017-07-10T10:00:59.819Z,33.4
2017-07-10T10:02:09.419Z,33.5
2017-07-10T10:03:07.583Z,33.5
2017-07-10T10:04:05.225Z,33.5
2017-07-10T10:05:07.105Z,33.6
2017-07-10T10:06:07.785Z,33.7
2017-07-10T10:07:02.550Z,33.8
2017-07-10T10:08:00.945Z,33.9
2017-07-10T10:09:07.218Z,34
2017-07-10T10:10:03.022Z,34.2
2017-07-10T10:11:04.865Z,34.2
2017-07-10T10:12:10.152Z,34.3
2017-07-10T10:13:08.789Z,34.3
2017-07-10T10:14:05.520Z,34.3
2017-07-10T10:15:05.976Z,34.3
2017-07-10T10:16:07.971Z,34.4
2017-07-10T10:17:12.768Z,34.5
2017-07-10T10:18:07.418Z,34.6
2017-07-10T10:19:08.673Z,34.7
2017-07-10T10:20:09.421Z,34.7
2017-07-10T10:21:08.707Z,34.7
2017-07-10T10:22:05.194Z,34.8
2017-07-10T10:23:03.223Z,34.8
2017-07-10T10:24:05.656Z,34.9
2017-07-10T10:25:08.124Z,35
2017-07-10T10:26:02.463Z,35
2017-07-10T10:27:02.030Z,35.1
2017-07-10T10:28:03.552Z,35.2
2017-07-10T10:29:07.413Z,35
2017-07-10T10:30:03.718Z,34.8
2017-07-10T10:31:07.460Z,34.6
2017-07-10T10:32:06.308Z,34.4
2017-07-10T10:33:09.492Z,34.3
2017-07-10T10:34:04.081Z,34.2
2017-07-10T10:35:04.433Z,34
2017-07-10T10:36:01.883Z,33.8
2017-07-10T10:37:08.344Z,33.8
2017-07-10T10:38:11.889Z,33.7
2017-07-10T10:39:03.816Z,33.6
2017-07-10T10:40:19.508Z,33.6
2017-07-10T10:41:01.918Z,33.5
2017-07-10T10:42:03.660Z,33.4
2017-07-10T10:43:02.025Z,33.4
2017-07-10T10:44:06.262Z,33.4
2017-07-10T10:45:06.085Z,33.4
2017-07-10T10:46:08.956Z,33.4
2017-07-10T10:47:06.610Z,33.4
2017-07-10T10:48:04.378Z,33.4
2017-07-10T10:49:04.783Z,33.3
2017-07-10T10:50:07.914Z,33.4
2017-07-10T10:51:11.113Z,33.4
2017-07-10T10:52:03.396Z,33.4
2017-07-10T10:53:06.473Z,33.4
2017-07-10T10:54:09.132Z,33.4
2017-07-10T10:55:09.914Z,33.4
2017-07-10T10:56:09.036Z,33.4
2017-07-10T10:57:04.031Z,33.3
2017-07-10T10:58:04.338Z,33.3
2017-07-10T10:59:02.663Z,33.4
2017-07-10T11:00:02.087Z,33.4
2017-07-10T11:01:07.281Z,33.3
2017-07-10T11:02:02.418Z,33.3
2017-07-10T11:03:05.541Z,33.3
2017-07-10T11:04:05.111Z,33.3
2017-07-10T11:05:04.554Z,33.3
2017-07-10T11:06:02.907Z,33.3
2017-07-10T11:07:10.223Z,33.3
2017-07-10T11:08:05.725Z,33.4
2017-07-10T11:09:03.639Z,33.3
2017-07-10T11:10:17.060Z,33.4
2017-07-10T11:11:02.432Z,33.4
2017-07-10T11:12:02.847Z,33.4
2017-07-10T11:13:06.487Z,33.4
2017-07-10T11:14:06.166Z,33.4
2017-07-10T11:15:03.521Z,33.4
2017-07-10T11:16:07.617Z,33.3
2017-07-10T11:17:08.928Z,33.3
2017-07-10T11:18:12.013Z,33.3
2017-07-10T11:19:11.353Z,33.3
2017-07-10T11:20:03.892Z,33.3
2017-07-10T11:21:08.185Z,33.3
2017-07-10T11:22:06.182Z,33.3
2017-07-10T11:23:05.357Z,33.2
2017-07-10T11:24:09.070Z,33.3
2017-07-10T11:25:05.078Z,33.3
2017-07-10T11:26:06.824Z,33.3
2017-07-10T11:27:04.671Z,33.3
2017-07-10T11:28:06.463Z,33.3
2017-07-10T11:29:04.650Z,33.4
2017-07-10T11:30:09.097Z,33.4
2017-07-10T11:31:04.441Z,33.4
2017-07-10T11:32:08.025Z,33.4
2017-07-10T11:33:09.638Z,33.4
2017-07-10T11:34:08.214Z,33.3
2017-07-10T11:35:14.315Z,33.4
2017-07-10T11:36:07.828Z,33.3
2017-07-10T11:37:12.939Z,33.3
2017-07-10T11:38:09.122Z,33.4
2017-07-10T11:39:09.468Z,33.4
2017-07-10T11:40:11.078Z,33.3
2017-07-10T11:41:15.404Z,33.4
2017-07-10T11:42:19.149Z,33.4
2017-07-10T11:43:17.622Z,33.3
2017-07-10T11:44:16.238Z,33.3
2017-07-10T11:45:15.399Z,33.3
2017-07-10T11:46:27.991Z,33.4
2017-07-10T11:47:14.582Z,33.4
2017-07-10T11:48:15.817Z,33.4
2017-07-10T11:49:14.798Z,33.4
2017-07-10T11:50:10.201Z,33.4
2017-07-10T11:51:12.867Z,33.4
2017-07-10T11:52:14.315Z,33.4
2017-07-10T11:53:16.362Z,33.3
2017-07-10T11:54:21.764Z,33.3
2017-07-10T11:55:19.049Z,33.2
2017-07-10T11:56:24.722Z,33.3
2017-07-10T11:57:20.566Z,33.3
2017-07-10T11:58:13.458Z,33.3
2017-07-10T12:00:17.127Z,33.4
2017-07-10T12:01:19.298Z,33.3
2017-07-10T12:02:10.990Z,33.3
2017-07-10T12:03:13.827Z,33.3
2017-07-10T12:04:26.859Z,33.4
2017-07-10T12:05:21.899Z,33.4
2017-07-10T12:06:20.970Z,33.5
2017-07-10T12:07:23.072Z,33.5
2017-07-10T12:08:15.541Z,33.5
2017-07-10T12:09:14.809Z,33.4
2017-07-10T12:10:16.371Z,33.5
2017-07-10T12:11:09.780Z,33.4
2017-07-10T12:12:15.412Z,33.5
2017-07-10T12:13:10.203Z,33.5
2017-07-10T12:14:05.944Z,33.4
2017-07-10T12:15:14.289Z,33.5
2017-07-10T12:16:08.589Z,33.5
2017-07-10T12:17:09.544Z,33.5
2017-07-10T12:18:06.985Z,33.5
2017-07-10T12:19:06.537Z,33.5
2017-07-10T12:20:09.953Z,33.5
2017-07-10T12:21:09.875Z,33.5
2017-07-10T12:22:08.066Z,33.5
2017-07-10T12:23:06.228Z,33.5
2017-07-10T12:24:10.319Z,33.6
2017-07-10T12:25:16.807Z,33.6
2017-07-10T12:26:13.686Z,33.6
2017-07-10T12:27:08.300Z,33.6
2017-07-10T12:28:08.758Z,33.7
2017-07-10T12:29:07.793Z,33.7
2017-07-10T12:30:12.445Z,33.7
2017-07-10T12:31:07.888Z,33.7
2017-07-10T12:32:11.786Z,33.7
2017-07-10T12:33:14.182Z,33.7
2017-07-10T12:34:09.943Z,33.7
2017-07-10T12:35:09.911Z,33.7
2017-07-10T12:36:10.300Z,33.7
2017-07-10T12:37:08.626Z,33.7
2017-07-10T12:38:10.115Z,33.7
2017-07-10T12:39:13.415Z,33.7
2017-07-10T12:40:14.889Z,33.7
2017-07-10T12:41:11.338Z,33.7
2017-07-10T12:42:09.896Z,33.8
2017-07-10T12:43:08.951Z,33.7
2017-07-10T12:44:07.730Z,33.8
2017-07-10T12:45:14.785Z,33.8
2017-07-10T12:46:15.818Z,33.8
2017-07-10T12:47:14.376Z,33.8
2017-07-10T12:48:12.691Z,33.8
2017-07-10T12:49:12.140Z,33.8
2017-07-10T12:50:15.019Z,33.8
2017-07-10T12:51:10.806Z,33.8
2017-07-10T12:52:10.937Z,33.8
2017-07-10T12:53:13.270Z,33.8
2017-07-10T12:54:12.126Z,33.8
2017-07-10T12:55:10.669Z,33.8
2017-07-10T12:56:11.081Z,33.8
2017-07-10T12:57:12.541Z,33.8
2017-07-10T12:58:07.721Z,33.8
2017-07-10T12:59:14.518Z,33.8
2017-07-10T13:00:11.139Z,33.8
2017-07-10T13:01:11.653Z,33.8
2017-07-10T13:02:13.397Z,33.9
2017-07-10T13:03:14.327Z,33.8
2017-07-10T13:04:10.956Z,33.9
2017-07-10T13:05:16.670Z,33.8
2017-07-10T13:06:15.743Z,33.9
2017-07-10T13:07:12.230Z,33.9
2017-07-10T13:08:13.069Z,33.9
2017-07-10T13:09:13.314Z,33.9
2017-07-10T13:10:09.642Z,33.9
2017-07-10T13:11:11.299Z,33.9
2017-07-10T13:12:08.783Z,33.9
2017-07-10T13:13:12.452Z,33.9
2017-07-10T13:14:08.389Z,33.9
2017-07-10T13:15:09.256Z,33.9
2017-07-10T13:16:13.172Z,33.9
2017-07-10T13:17:09.447Z,33.9
2017-07-10T13:18:12.037Z,33.8
2017-07-10T13:19:10.509Z,33.8
2017-07-10T13:20:13.602Z,33.9
2017-07-10T13:21:11.755Z,33.9
2017-07-10T13:22:12.193Z,33.9
2017-07-10T13:23:09.060Z,33.9
2017-07-10T13:24:08.987Z,33.9
2017-07-10T13:25:12.014Z,33.8
2017-07-10T13:26:11.147Z,33.8
2017-07-10T13:27:10.018Z,33.8
2017-07-10T13:28:10.210Z,33.8
2017-07-10T13:29:14.285Z,33.8
2017-07-10T13:30:10.465Z,33.8